עמוד ראשי
METAR-TAF:

METAR-TAF

שדות תעופה :

רבאט, מרוקו

קו רוחב: 34-03N, קו אורך: 006-46W, גובה: 84מטר

תצפית מזג אוויר נוכחית

הדו"ח נערך לפני 40דקות, בשעה 10:30 UTC
רוח 9קשר מכיוון מערב, משתנה בין מערב/דרום-מערב ו צפון-מערב
טמפרטורת 23 צלסיוס
לחות 83%
לחץ 1010 hPa
ראות: 5000מטר
מעט עננים בגובה 1000רגל
עננים בינוניים בגובה 1600רגל

METAR: GMME 251030Z 28009KT 250V320 5000 FEW010 BKN016 23/20 Q1010 NOSIG

זמן: 12:10 (11:10 UTC)

תחזית

הדו"ח נערך לפני 6 שעות ו 10דקות, בשעה 05:00 UTC
תחזית בתוקף מ 25 ב 06 UTC עד 26 ב 12 UTC
רוח 8קשר מכיוון מערב
ראות: 6000מטר
עננים בינוניים בגובה 1000רגל
יעשה מ
25 ב 08 UTC עד 25 ב 12 UTC
עננים פזורים בגובה 1600רגל
זמנית מ -
26 ב 00 UTC עד 26 ב 08 UTC
עננים בינוניים בגובה 1000רגל

TAF: GMME 250500Z 2506/2612 26008KT 6000 BKN010 BECMG 2508/2512 SCT016 TEMPO 2600/2608 BKN010

תצפיות ותחזיות מזג אוויר לגבי יותר מ- 4,000 שדות תעופה ברחבי העולם. דוחות METAR ו- TAF.

התחנות הזמינות מסומנות בנקודות צהובות ואדומות על גבי המפה.

העבר את העכבר לנקודה הצבעונית על מנת לראות את שם התחנה.

לאחר מכן, לחץ כדי לראות את תוכן ואת תחזיות מזג האוויר.

כדי לשנות את המפה: לחץ על הכפתורים הירוקים עם הפלוס השחור כדי להתקרב; על הכפתור הירוק עם המקף כדי להתרחק; או בחיצים הירוקים למפות סמוכות.


METAR-TAF: